Time;durP1;ratioP1;P1;durP2;ratioP2;P2;SDS_P1;SDS_P2;PMS_P1;PMS_P2;Temp;Humidity;BMP_temperature;BMP_pressure;BME280_temperature;BME280_humidity;BME280_pressure;Samples;Min_cycle;Max_cycle;Signal;HPM_P1;HPM_P2
2024/03/16 00:00:07;;;;;;;7.90;2.20;;;7.20;99.90;;;-144.05;85.61;56972.03;5017118;28;20048;-79
2024/03/16 00:02:37;;;;;;;5.90;2.25;;;10.60;99.90;;;-144.05;85.86;56976.28;5016884;28;20022;-79
2024/03/16 00:05:03;;;;;;;4.32;2.00;;;7.50;99.90;;;-144.05;85.41;57008.13;5021486;28;20009;-80
2024/03/16 00:07:29;;;;;;;8.52;2.17;;;7.30;99.90;;;-144.05;85.49;56976.28;5035053;28;20034;-78
2024/03/16 00:09:55;;;;;;;6.97;2.15;;;7.30;99.90;;;-144.05;85.11;56982.66;5027371;28;20048;-80
2024/03/16 00:12:21;;;;;;;7.30;2.20;;;7.80;99.90;;;-144.05;85.84;56982.66;5028129;28;20061;-79
2024/03/16 00:14:48;;;;;;;8.02;3.10;;;;;;;-144.05;85.37;56967.78;5021054;28;20025;-80
2024/03/16 00:17:17;;;;;;;6.93;2.00;;;;;;;-144.05;85.45;56969.91;5018175;28;20092;-79
2024/03/16 00:19:45;;;;;;;5.68;2.00;;;7.50;99.90;;;-144.05;85.75;56969.91;5016302;28;20030;-80
2024/03/16 00:22:11;;;;;;;5.53;1.52;;;7.00;99.90;;;-144.05;84.93;57001.75;5015997;28;20050;-79
2024/03/16 00:24:37;;;;;;;7.05;1.55;;;7.30;99.90;;;-144.05;85.06;56978.41;5017364;28;20498;-79
2024/03/16 00:27:03;;;;;;;7.85;2.13;;;;;;;-144.05;84.69;56982.66;5017101;28;20030;-79
2024/03/16 00:29:30;;;;;;;6.97;1.90;;;;;;;-144.05;84.37;56986.91;5015085;28;20115;-79
2024/03/16 00:31:56;;;;;;;5.25;1.58;;;;;;;-144.05;84.06;56991.13;5016755;28;20030;-78
2024/03/16 00:34:23;;;;;;;5.07;1.73;;;;;;;-144.05;83.51;56989.00;5015955;28;20083;-78
2024/03/16 00:36:49;;;;;;;7.10;1.85;;;7.50;99.90;;;-144.05;83.34;56959.28;5021945;28;20116;-80
2024/03/16 00:39:15;;;;;;;3.63;1.52;;;;;;;-144.05;83.04;56999.63;5022395;28;20060;-79
2024/03/16 00:41:42;;;;;;;2.00;1.17;;;14.60;99.90;;;-144.05;82.63;56984.78;5016892;28;20399;-80
2024/03/16 00:44:09;;;;;;;4.45;1.70;;;;;;;-144.05;82.52;56950.78;5012565;28;20022;-80
2024/03/16 00:46:36;;;;;;;5.38;1.30;;;;;;;-144.05;82.42;57001.75;5017045;28;20096;-78
2024/03/16 00:49:02;;;;;;;6.68;1.23;;;7.40;99.90;;;-144.05;82.06;56976.28;5017763;28;20060;-78
2024/03/16 00:51:29;;;;;;;4.45;1.30;;;;;;;-144.05;81.62;56999.63;5011618;28;20041;-80
2024/03/16 00:53:58;;;;;;;3.83;1.77;;;7.70;99.90;;;-144.05;81.32;56955.03;5016372;28;20057;-80
2024/03/16 00:56:24;;;;;;;4.40;1.80;;;;;;;-144.05;81.72;56993.25;5011600;28;20062;-79
2024/03/16 00:58:50;;;;;;;2.83;0.95;;;7.10;99.90;;;-144.05;82.06;56957.16;5016852;28;20037;-79
2024/03/16 01:01:17;;;;;;;6.85;1.45;;;;;;;-144.05;82.22;56995.38;5011648;28;20079;-79
2024/03/16 01:03:43;;;;;;;4.45;1.25;;;;;;;-144.05;82.76;56982.66;5016506;28;20096;-78
2024/03/16 01:06:09;;;;;;;3.40;1.17;;;7.50;99.90;;;-144.05;82.50;56976.28;5032382;28;20145;-80
2024/03/16 01:08:35;;;;;;;3.67;1.67;;;7.00;99.90;;;-144.05;82.38;56969.91;5016537;28;20033;-79
2024/03/16 01:11:02;;;;;;;8.82;2.00;;;;;;;-144.05;82.31;56967.78;5010473;28;20030;-79
2024/03/16 01:13:28;;;;;;;4.85;1.20;;;7.00;99.90;;;-144.05;82.81;56974.16;5013704;28;20510;-80
2024/03/16 01:15:54;;;;;;;4.60;1.40;;;;;;;-144.05;84.09;56989.00;5012421;28;20034;-79
2024/03/16 01:18:20;;;;;;;8.82;1.45;;;7.50;99.90;;;-144.05;82.74;56976.28;5010204;28;20034;-81
2024/03/16 01:20:46;;;;;;;6.43;1.70;;;7.70;99.90;;;-144.05;82.71;56989.00;5015294;28;20037;-80
2024/03/16 01:23:17;;;;;;;3.22;1.20;;;7.40;99.90;;;-144.05;82.57;56963.53;5016367;28;20053;-81
2024/03/16 01:25:43;;;;;;;4.70;1.63;;;;;;;-144.05;82.59;56978.41;5012164;28;20033;-80
2024/03/16 01:28:09;;;;;;;4.13;1.17;;;7.60;99.90;;;-144.05;83.07;56967.78;5015272;28;20112;-79
2024/03/16 01:30:36;;;;;;;4.40;1.35;;;;;;;-144.05;82.71;56993.25;5015009;28;20395;-80
2024/03/16 01:33:02;;;;;;;5.68;1.42;;;;;;;-144.05;82.82;56967.78;5015086;28;20101;-79
2024/03/16 01:35:28;;;;;;;2.60;1.42;;;7.50;99.90;;;-144.05;82.76;56976.28;5013536;28;20034;-80
2024/03/16 01:37:54;;;;;;;3.65;1.40;;;;;;;-144.05;83.31;56986.91;5015964;28;20056;-78
2024/03/16 01:40:24;;;;;;;10.15;1.65;;;;;;;-144.05;83.27;56986.91;5015320;28;20026;-81
2024/03/16 01:42:53;;;;;;;4.25;1.50;;;10.30;99.90;;;-144.05;83.37;56955.03;5016028;28;20030;-81
2024/03/16 01:45:19;;;;;;;6.22;2.05;;;7.60;99.90;;;-144.05;83.37;56984.78;5023868;28;20037;-81
2024/03/16 01:47:47;;;;;;;8.20;1.67;;;;;;;-144.05;83.47;56974.16;5020228;28;20085;-81
2024/03/16 01:50:18;;;;;;;6.80;2.17;;;;;;;-144.05;83.17;56993.25;5014891;28;20022;-80
2024/03/16 01:52:46;;;;;;;8.25;1.67;;;14.60;99.90;;;-144.05;83.12;57012.38;5012817;28;20029;-81
2024/03/16 01:55:13;;;;;;;9.20;1.88;;;7.30;99.90;;;-144.05;83.06;57003.88;5015127;28;20026;-80
2024/03/16 01:57:39;;;;;;;7.32;1.88;;;;;;;-144.05;83.50;56963.53;5016110;28;20037;-80
2024/03/16 02:00:11;;;;;;;6.95;1.88;;;10.60;99.90;;;-144.05;83.99;56976.28;5028043;28;20081;-81
2024/03/16 02:02:41;;;;;;;4.72;1.23;;;;;;;-144.05;83.63;56982.66;5022640;28;20037;-82
2024/03/16 02:05:09;;;;;;;6.35;1.55;;;7.50;99.90;;;-144.05;83.67;56969.91;5021440;28;20026;-80
2024/03/16 02:07:38;;;;;;;5.95;1.60;;;10.50;99.90;;;-144.05;83.97;56942.28;5024955;28;20095;-80
2024/03/16 02:10:08;;;;;;;5.95;1.40;;;7.30;99.90;;;-144.05;83.77;56957.16;5022201;28;20029;-79
2024/03/16 02:12:34;;;;;;;4.55;1.60;;;7.40;99.90;;;-144.05;83.63;56986.91;5029402;28;20041;-79
2024/03/16 02:15:02;;;;;;;10.10;2.20;;;7.50;99.90;;;-144.05;84.10;56984.78;5013364;28;20630;-80
2024/03/16 02:17:28;;;;;;;5.60;1.40;;;;;;;-144.05;83.34;56978.41;5009214;28;20062;-79
2024/03/16 02:19:55;;;;;;;6.43;1.80;;;;;;;-144.05;83.26;56972.03;5013441;28;20036;-79
2024/03/16 02:22:21;;;;;;;6.97;1.95;;;7.50;99.90;;;-144.05;83.17;56984.78;5013983;28;20042;-80
2024/03/16 02:24:47;;;;;;;7.35;1.65;;;;;;;-144.05;83.07;56982.66;5003676;28;20054;-80
2024/03/16 02:27:13;;;;;;;8.82;1.52;;;;;;;-144.05;83.21;56959.28;5035083;28;20050;-79
2024/03/16 02:29:39;;;;;;;6.63;1.73;;;7.80;99.90;;;-144.05;82.97;56967.78;5033124;28;20495;-79
2024/03/16 02:32:11;;;;;;;6.85;2.33;;;10.60;99.90;;;-144.05;83.59;56959.28;5032020;28;20033;-80
2024/03/16 02:34:37;;;;;;;8.30;1.40;;;7.60;99.90;;;-144.05;83.75;56986.91;5013711;28;20034;-79
2024/03/16 02:37:05;;;;;;;7.25;1.67;;;7.10;99.90;;;-144.05;83.56;56976.28;5019704;28;20022;-79
2024/03/16 02:39:32;;;;;;;5.05;1.70;;;7.30;99.90;;;-144.05;83.56;56972.03;5024658;28;20105;-79
2024/03/16 02:42:05;;;;;;;9.05;1.92;;;6.90;99.90;;;-144.05;83.42;56976.28;5026288;28;20040;-80
2024/03/16 02:44:31;;;;;;;14.63;1.92;;;7.60;99.90;;;-144.05;83.43;56976.28;5025761;28;20037;-80
2024/03/16 02:47:00;;;;;;;10.52;1.67;;;10.50;99.90;;;-144.05;83.09;56972.03;5024503;28;20075;-80
2024/03/16 02:49:27;;;;;;;7.65;1.40;;;7.20;99.90;;;-144.05;83.30;56955.03;5017496;28;20087;-80
2024/03/16 02:51:55;;;;;;;8.93;1.50;;;7.30;99.90;;;-144.05;83.33;56991.13;5019073;28;20034;-80
2024/03/16 02:54:22;;;;;;;10.07;1.60;;;6.90;99.90;;;-144.05;82.88;56989.00;5018615;28;20431;-80
2024/03/16 02:56:48;;;;;;;9.75;1.67;;;7.80;99.90;;;-144.05;82.52;56965.66;5018642;28;20038;-79
2024/03/16 02:59:14;;;;;;;4.22;1.27;;;;;;;-144.05;82.83;56986.91;5035399;28;20053;-79
2024/03/16 03:01:40;;;;;;;6.45;1.38;;;;;;;-144.05;83.05;56989.00;5026006;28;20383;-81
2024/03/16 03:04:08;;;;;;;8.48;1.65;;;7.30;99.90;;;-144.05;83.02;56989.00;5029227;28;20525;-80
2024/03/16 03:06:35;;;;;;;10.07;1.58;;;;;;;-144.05;83.20;56976.28;5020396;28;20030;-80
2024/03/16 03:09:01;;;;;;;9.32;1.60;;;;;;;-144.05;82.82;56955.03;5016315;28;20030;-80
2024/03/16 03:11:27;;;;;;;8.95;2.00;;;7.50;99.90;;;-144.05;83.01;57001.75;5013122;28;20034;-80
2024/03/16 03:13:53;;;;;;;15.13;2.10;;;7.90;99.90;;;-144.05;82.92;56997.50;5032592;28;20028;-80
2024/03/16 03:16:20;;;;;;;11.00;1.88;;;7.70;99.90;;;-144.05;83.19;56989.00;5017270;28;20080;-79
2024/03/16 03:18:51;;;;;;;10.18;2.22;;;14.50;99.90;;;-144.05;83.16;56957.16;5018059;28;20903;-80
2024/03/16 03:21:17;;;;;;;12.60;2.30;;;10.60;99.90;;;-144.05;83.53;56963.53;5017934;28;20026;-78
2024/03/16 03:23:43;;;;;;;7.30;2.13;;;7.70;99.90;;;-144.05;83.22;56967.78;5030227;28;20029;-80
2024/03/16 03:26:13;;;;;;;6.60;2.28;;;7.50;99.90;;;-144.05;83.04;56976.28;5037964;28;20030;-80
2024/03/16 03:28:39;;;;;;;7.60;2.03;;;;;;;-144.05;82.72;56999.63;5018717;28;20038;-80
2024/03/16 03:31:10;;;;;;;6.35;1.90;;;10.60;99.90;;;-144.05;82.69;57001.75;5018841;28;20030;-80
2024/03/16 03:33:36;;;;;;;8.60;2.38;;;14.40;99.90;;;-144.05;83.21;56984.78;5029515;28;20091;-79
2024/03/16 03:36:05;;;;;;;6.18;1.70;;;8.30;99.90;;;-144.05;83.25;56984.78;5032995;28;20030;-81
2024/03/16 03:38:31;;;;;;;11.52;3.10;;;7.90;99.90;;;-144.05;83.34;56967.78;5027327;28;20030;-80
2024/03/16 03:40:58;;;;;;;5.75;2.55;;;7.30;99.90;;;-144.05;83.74;56957.16;5012044;28;20496;-81
2024/03/16 03:43:24;;;;;;;6.63;2.85;;;14.60;99.90;;;-144.05;84.26;57001.75;5030080;28;20487;-80
2024/03/16 03:45:52;;;;;;;13.82;3.70;;;7.30;99.90;;;-144.05;85.46;56986.91;5016906;28;20463;-80
2024/03/16 03:50:57;;;;;;;13.43;3.95;;;7.80;99.90;;;-144.05;87.37;56976.28;5017186;28;20085;-79
2024/03/16 03:53:26;;;;;;;8.27;4.10;;;7.60;99.90;;;-144.05;88.40;56997.50;5016745;28;20092;-80
2024/03/16 03:55:53;;;;;;;9.93;4.60;;;7.20;99.90;;;-144.05;89.00;56986.91;5018459;28;20056;-80
2024/03/16 03:58:20;;;;;;;9.07;3.72;;;10.10;99.90;;;-144.05;89.49;56980.53;5015779;28;20060;-81
2024/03/16 04:00:48;;;;;;;13.20;4.13;;;10.10;99.90;;;-144.05;90.44;56963.53;5016639;28;20446;-80
2024/03/16 04:03:15;;;;;;;14.40;5.05;;;7.30;99.90;;;-144.05;90.64;56972.03;5017288;28;20109;-80
2024/03/16 04:05:42;;;;;;;12.43;5.03;;;6.90;99.90;;;-144.05;90.68;56969.91;5013043;28;20117;-80
2024/03/16 04:08:07;;;;;;;10.23;4.35;;;7.20;99.90;;;-144.05;91.03;56984.78;5015676;28;20021;-80
2024/03/16 04:10:36;;;;;;;12.70;4.82;;;10.00;99.90;;;-144.05;91.41;56963.53;5015294;28;20037;-79
2024/03/16 04:13:04;;;;;;;14.70;5.13;;;10.00;99.90;;;-144.05;91.22;56967.78;5014742;28;20030;-80
2024/03/16 04:15:29;;;;;;;13.27;5.40;;;7.00;99.90;;;-144.05;91.89;56991.13;5017083;28;20076;-80
2024/03/16 04:17:56;;;;;;;11.90;5.28;;;;;;;-144.05;91.50;56946.53;5015935;28;20506;-79
2024/03/16 04:20:22;;;;;;;12.10;4.90;;;;;;;-144.05;91.68;56972.03;5017366;28;20034;-82
2024/03/16 04:22:49;;;;;;;13.38;5.65;;;7.20;99.90;;;-144.05;92.62;56993.25;5017004;28;20037;-80
2024/03/16 04:25:16;;;;;;;11.48;5.68;;;7.50;99.90;;;-144.05;93.07;56957.16;5016943;28;20056;-81
2024/03/16 04:27:44;;;;;;;10.10;6.05;;;10.10;99.90;;;-144.05;92.92;56959.28;5012282;28;20104;-82
2024/03/16 04:30:11;;;;;;;12.73;5.60;;;8.00;99.90;;;-144.05;92.56;56969.91;5027146;28;20518;-78
2024/03/16 04:32:37;;;;;;;15.38;6.22;;;;;;;-144.05;92.69;56984.78;5015696;28;20022;-79
2024/03/16 04:35:05;;;;;;;12.32;6.32;;;14.40;99.90;;;-144.05;92.45;56999.63;5013876;28;20089;-79
2024/03/16 04:37:33;;;;;;;17.23;6.18;;;;;;;-144.05;92.67;56980.53;5015520;28;20385;-79
2024/03/16 04:39:59;;;;;;;15.40;6.35;;;;;;;-144.05;93.22;56969.91;5026237;28;20030;-79
2024/03/16 04:42:25;;;;;;;15.77;6.10;;;6.70;99.90;;;-144.05;93.18;56976.28;5018302;28;20132;-79
2024/03/16 04:44:52;;;;;;;11.93;4.97;;;7.20;99.90;;;-144.05;92.90;56969.91;5011048;28;20034;-81
2024/03/16 04:47:18;;;;;;;9.63;5.13;;;7.20;99.90;;;-144.05;93.38;56961.41;5011501;28;20030;-81
2024/03/16 04:49:44;;;;;;;8.23;4.93;;;6.70;99.90;;;-144.05;93.74;56984.78;5015423;28;20084;-79
2024/03/16 04:52:13;;;;;;;12.68;5.13;;;;;;;-144.05;93.97;56967.78;5014368;28;20018;-79
2024/03/16 04:54:40;;;;;;;15.05;5.35;;;7.20;99.90;;;-144.05;94.81;56969.91;5014748;28;20034;-81
2024/03/16 04:57:06;;;;;;;12.80;5.88;;;6.90;99.90;;;-144.05;94.32;56969.91;5030123;28;20088;-81
2024/03/16 04:59:32;;;;;;;13.65;5.25;;;;;;;-144.05;94.24;57025.13;5013764;28;20022;-80
2024/03/16 05:01:58;;;;;;;15.15;5.88;;;;;;;-144.05;93.91;56957.16;5020533;28;20344;-81
2024/03/16 05:04:25;;;;;;;13.45;5.78;;;;;;;-144.05;94.22;57001.75;5017435;28;20117;-81
2024/03/16 05:06:51;;;;;;;8.75;5.63;;;;;;;-144.05;94.99;56982.66;5011596;28;20026;-83
2024/03/16 05:09:17;;;;;;;15.50;6.35;;;7.70;99.90;;;-144.05;95.08;56963.53;5011434;28;20117;-79
2024/03/16 05:11:44;;;;;;;14.48;6.40;;;7.90;99.90;;;-144.05;95.18;56989.00;5015244;28;20096;-81
2024/03/16 05:14:10;;;;;;;14.45;7.07;;;7.50;99.90;;;-144.05;94.83;56978.41;5014908;28;20058;-79
2024/03/16 05:16:39;;;;;;;10.95;6.40;;;7.20;99.90;;;-144.05;95.17;56978.41;5013057;28;20065;-81
2024/03/16 05:19:06;;;;;;;14.50;7.40;;;;;;;-144.05;95.21;56999.63;5014205;28;20022;-81
2024/03/16 05:21:34;;;;;;;12.60;7.05;;;;;;;-144.05;95.15;56976.28;5012913;28;20049;-81
2024/03/16 05:24:01;;;;;;;16.80;8.30;;;7.10;99.90;;;-144.05;95.50;56965.66;5014088;28;20033;-80
2024/03/16 05:26:30;;;;;;;18.30;9.10;;;7.60;99.90;;;-144.05;95.94;56976.28;5017692;28;20084;-79
2024/03/16 05:28:56;;;;;;;16.48;9.50;;;7.40;99.90;;;-144.05;95.71;56982.66;5028446;28;20038;-78
2024/03/16 05:31:22;;;;;;;16.77;9.80;;;7.20;99.90;;;-144.05;95.71;56997.50;5013717;28;20026;-80
2024/03/16 05:33:49;;;;;;;18.95;10.57;;;;;;;-144.05;95.91;56993.25;5013776;28;20025;-80
2024/03/16 05:36:16;;;;;;;19.20;11.35;;;;;;;-144.05;95.73;56974.16;5019476;28;20034;-79
2024/03/16 05:38:46;;;;;;;19.55;11.18;;;7.50;99.90;;;-144.05;95.87;56980.53;5014994;28;20121;-80
2024/03/16 05:41:15;;;;;;;22.75;11.25;;;7.10;99.90;;;-144.05;95.83;56957.16;5014995;28;20030;-80
2024/03/16 05:43:44;;;;;;;21.45;11.85;;;;;;;-144.05;95.88;56963.53;5010100;28;20181;-79
2024/03/16 05:46:10;;;;;;;21.60;12.82;;;14.40;99.90;;;-144.05;97.05;56986.91;5011716;28;20022;-80
2024/03/16 05:48:36;;;;;;;28.38;12.60;;;7.20;99.90;;;-144.05;96.79;57003.88;5014288;28;20104;-80
2024/03/16 05:51:04;;;;;;;26.10;13.48;;;6.90;99.90;;;-144.05;96.14;57006.00;5013975;28;20062;-79
2024/03/16 05:53:30;;;;;;;23.58;13.63;;;;;;;-144.05;96.49;56982.66;5013364;28;20109;-80
2024/03/16 05:55:57;;;;;;;26.20;14.30;;;;;;;-144.05;97.15;56993.25;5015476;28;20026;-79
2024/03/16 05:58:22;;;;;;;27.00;14.50;;;14.30;99.90;;;-144.05;96.52;56986.91;5013847;28;20030;-79
2024/03/16 06:00:49;;;;;;;27.48;14.27;;;11.30;99.90;;;-144.05;96.17;56967.78;5013835;28;20053;-79
2024/03/16 06:03:15;;;;;;;22.88;13.65;;;7.80;99.90;;;-144.05;96.41;56959.28;5014278;28;20084;-79
2024/03/16 06:05:43;;;;;;;25.83;14.27;;;14.30;99.90;;;-144.05;95.53;56984.78;5013033;28;20034;-80
2024/03/16 06:08:10;;;;;;;26.45;14.70;;;11.00;99.90;;;-144.05;95.76;56993.25;5012242;28;20041;-79
2024/03/16 06:10:36;;;;;;;26.08;13.65;;;7.30;99.90;;;-144.05;96.27;56972.03;5018751;28;20112;-79
2024/03/16 06:13:04;;;;;;;24.55;12.93;;;;;;;-144.05;95.96;56957.16;5022608;28;20097;-80
2024/03/16 06:15:30;;;;;;;18.20;11.32;;;7.10;99.90;;;-144.05;95.71;56969.91;5017974;28;20476;-80
2024/03/16 06:17:56;;;;;;;14.85;7.60;;;8.10;99.90;;;-144.05;93.88;56989.00;5016710;28;20057;-80
2024/03/16 06:20:22;;;;;;;15.00;7.38;;;;;;;-144.05;93.14;56980.53;5010782;28;20022;-81
2024/03/16 06:22:49;;;;;;;11.23;7.05;;;9.50;99.90;;;-144.05;92.35;56967.78;5027068;28;20030;-79
2024/03/16 06:25:17;;;;;;;9.38;5.07;;;6.90;99.90;;;-144.05;91.38;56969.91;5038611;28;20078;-80
2024/03/16 06:27:43;;;;;;;8.52;4.60;;;;;;;-144.05;90.65;56997.50;5046327;28;20052;-81
2024/03/16 06:30:13;;;;;;;6.20;3.95;;;9.40;99.90;;;-144.05;90.37;56993.25;5017714;28;20520;-80
2024/03/16 06:32:44;;;;;;;12.27;4.78;;;;;;;-144.05;89.90;56978.41;5018051;28;20488;-79
2024/03/16 06:35:14;;;;;;;7.78;4.28;;;6.70;99.90;;;-144.05;89.69;56974.16;5018161;28;20397;-81
2024/03/16 06:37:40;;;;;;;5.88;4.20;;;7.70;99.90;;;-144.05;90.39;56984.78;5025572;28;20113;-81
2024/03/16 06:40:06;;;;;;;7.35;4.22;;;;;;;-144.05;90.85;56984.78;5017054;28;20631;-81
2024/03/16 06:42:32;;;;;;;7.97;3.97;;;;;;;-144.05;91.43;56999.63;5023122;28;20054;-80
2024/03/16 06:44:59;;;;;;;9.05;4.88;;;;;;;-144.05;91.61;57001.75;5022148;28;20453;-80
2024/03/16 06:47:24;;;;;;;9.93;4.40;;;7.10;99.90;;;-144.05;91.42;56974.16;5016922;28;20030;-80
2024/03/16 06:49:51;;;;;;;15.23;4.97;;;;;;;-144.05;91.99;56963.53;5018611;28;20033;-79
2024/03/16 06:52:24;;;;;;;7.88;4.40;;;6.90;99.90;;;-144.05;92.51;56989.00;5018371;28;20022;-80
2024/03/16 06:54:54;;;;;;;7.55;4.63;;;7.20;99.90;;;-144.05;92.54;56978.41;5030708;28;20073;-80
2024/03/16 06:57:19;;;;;;;7.63;4.47;;;7.30;99.90;;;-144.05;92.36;56955.03;5016439;28;20505;-80
2024/03/16 06:59:47;;;;;;;8.65;4.95;;;;;;;-144.05;92.36;56995.38;5013212;28;20112;-80
2024/03/16 07:02:13;;;;;;;9.02;5.00;;;;;;;-144.05;92.54;57010.25;5023931;28;20017;-80
2024/03/16 07:04:39;;;;;;;8.80;4.97;;;7.00;99.90;;;-144.05;92.30;56974.16;5020781;28;20022;-81
2024/03/16 07:07:05;;;;;;;10.63;5.50;;;;;;;-144.05;92.24;56989.00;5019326;28;20044;-79
2024/03/16 07:09:31;;;;;;;11.55;4.90;;;6.90;99.90;;;-144.05;92.90;56974.16;5019907;28;20037;-80
2024/03/16 07:11:57;;;;;;;9.00;5.63;;;;;;;-144.05;92.29;56989.00;5020037;28;20110;-79
2024/03/16 07:14:23;;;;;;;8.02;4.53;;;7.40;99.90;;;-144.05;92.54;56980.53;5016580;28;20462;-79
2024/03/16 07:16:49;;;;;;;9.43;4.93;;;;;;;-144.05;92.63;56946.53;5016421;28;20022;-80
2024/03/16 07:19:16;;;;;;;6.22;4.10;;;13.80;99.90;;;-144.05;92.36;56974.16;5015101;28;20099;-79
2024/03/16 07:21:42;;;;;;;5.15;3.63;;;;;;;-144.05;92.58;56995.38;5013907;28;20030;-83
2024/03/16 07:24:09;;;;;;;6.50;3.92;;;8.10;99.90;;;-144.05;92.12;56969.91;5019349;28;20034;-79
2024/03/16 07:26:36;;;;;;;6.97;3.72;;;;;;;-144.05;91.89;56995.38;5019192;28;20029;-79
2024/03/16 07:29:02;;;;;;;6.85;3.05;;;;;;;-144.05;91.57;57008.13;5018272;28;20112;-81
2024/03/16 07:31:28;;;;;;;5.10;2.90;;;7.30;99.90;;;-144.05;91.44;56984.78;5018518;28;20563;-78
2024/03/16 07:33:54;;;;;;;4.43;2.85;;;;;;;-144.05;91.03;56982.66;5016303;28;20054;-78
2024/03/16 07:36:20;;;;;;;6.38;2.50;;;6.60;99.90;;;-144.05;91.22;56995.38;5019084;28;20029;-78
2024/03/16 07:38:45;;;;;;;5.88;2.80;;;7.10;99.90;;;-144.05;91.04;57003.88;5033807;28;20022;-79
2024/03/16 07:41:13;;;;;;;5.95;2.80;;;7.80;99.90;;;-144.05;90.65;56989.00;5018552;28;20018;-81
2024/03/16 07:43:40;;;;;;;4.20;2.42;;;7.30;99.90;;;-144.05;90.45;56982.66;5017476;28;20014;-79
2024/03/16 07:46:06;;;;;;;4.00;2.17;;;;;;;-144.05;90.25;57008.13;5018237;28;20033;-78
2024/03/16 07:48:32;;;;;;;3.28;2.03;;;7.30;99.90;;;-144.05;90.01;56986.91;5018973;28;20057;-79
2024/03/16 07:51:00;;;;;;;3.75;2.45;;;7.00;99.90;;;-144.05;89.38;56982.66;5016793;28;20121;-79
2024/03/16 07:53:26;;;;;;;3.92;2.13;;;7.50;99.90;;;-144.05;89.05;56974.16;5015662;28;20026;-80
2024/03/16 07:55:54;;;;;;;9.07;2.60;;;10.80;99.90;;;-144.05;89.08;56982.66;5017281;28;20450;-78
2024/03/16 07:58:20;;;;;;;4.13;2.47;;;6.70;99.90;;;-144.05;89.36;56984.78;5016133;28;20084;-81
2024/03/16 08:00:49;;;;;;;3.75;2.22;;;7.30;99.90;;;-144.05;89.10;56993.25;5017064;28;20030;-79
2024/03/16 08:03:16;;;;;;;3.65;1.80;;;;;;;-144.05;88.03;56986.91;5017998;28;20026;-77
2024/03/16 08:05:42;;;;;;;4.32;2.00;;;6.50;99.90;;;-144.05;88.25;56974.16;5017765;28;20033;-79
2024/03/16 08:08:08;;;;;;;3.60;1.38;;;14.20;99.90;;;-144.05;87.12;56997.50;5032793;28;20021;-79
2024/03/16 08:10:34;;;;;;;4.63;1.95;;;;;;;-144.05;86.36;57001.75;5017860;28;20026;-80
2024/03/16 08:13:00;;;;;;;4.68;1.40;;;13.70;99.90;;;-144.05;86.02;56995.38;5017969;28;20032;-80
2024/03/16 08:15:26;;;;;;;3.15;1.67;;;6.90;99.90;;;-144.05;86.30;56995.38;5017701;28;20037;-81
2024/03/16 08:17:54;;;;;;;4.90;1.40;;;7.90;99.90;;;-144.05;85.66;56995.38;5018478;28;20394;-80
2024/03/16 08:20:23;;;;;;;4.10;1.10;;;10.90;99.90;;;-144.05;84.44;56967.78;5021177;28;20022;-80
2024/03/16 08:22:54;;;;;;;2.35;0.90;;;6.70;99.90;;;-144.05;82.89;56978.41;5018123;28;20025;-80
2024/03/16 08:25:21;;;;;;;2.70;0.98;;;7.00;99.90;;;-144.05;81.48;56986.91;5016124;28;20076;-80
2024/03/16 08:27:47;;;;;;;1.00;0.70;;;;;;;-144.05;80.68;56986.91;5017801;28;20032;-79
2024/03/16 08:30:13;;;;;;;4.05;0.80;;;7.00;99.90;;;-144.05;80.26;56984.78;5016477;28;20025;-81
2024/03/16 08:32:40;;;;;;;1.85;0.70;;;;;;;-144.05;80.34;56986.91;5016917;28;20407;-80
2024/03/16 08:35:06;;;;;;;1.45;0.60;;;6.60;99.90;;;-144.05;80.89;56980.53;5016372;28;20034;-81
2024/03/16 08:37:33;;;;;;;4.95;1.00;;;;;;;-144.05;79.83;56999.63;5031372;28;20030;-81
2024/03/16 08:40:00;;;;;;;4.82;1.20;;;;;;;-144.05;80.07;56980.53;5030851;28;20026;-81
2024/03/16 08:42:25;;;;;;;3.00;0.95;;;10.70;99.90;;;-144.05;80.41;56978.41;5016289;28;20029;-81
2024/03/16 08:44:52;;;;;;;2.17;1.10;;;7.20;99.90;;;-144.05;80.98;56984.78;5016361;28;20030;-81
2024/03/16 08:47:18;;;;;;;2.95;1.80;;;7.70;99.90;;;-144.05;80.67;56980.53;5014929;28;20057;-80
2024/03/16 08:49:44;;;;;;;5.72;2.40;;;;;;;-144.05;82.12;57006.00;5016358;28;20022;-81
2024/03/16 08:52:10;;;;;;;5.45;2.95;;;6.70;99.90;;;-144.05;81.47;56999.63;5015805;28;20029;-81
2024/03/16 08:54:36;;;;;;;6.07;2.33;;;;;;;-144.05;81.99;57001.75;5016073;28;20033;-81
2024/03/16 08:57:04;;;;;;;5.18;2.40;;;7.20;99.90;;;-144.05;82.63;56984.78;5016036;28;20097;-81
2024/03/16 08:59:31;;;;;;;3.90;1.98;;;;;;;-144.05;83.01;57008.13;5013196;28;20026;-81
2024/03/16 09:01:57;;;;;;;1.75;0.90;;;6.50;99.90;;;-144.05;84.25;57001.75;5017226;28;20061;-82
2024/03/16 09:04:23;;;;;;;3.85;0.90;;;7.20;99.90;;;-144.05;85.37;56980.53;5016908;28;20111;-81
2024/03/16 09:06:48;;;;;;;4.90;1.13;;;7.60;99.90;;;-144.05;85.46;56982.66;5016482;28;20022;-82
2024/03/16 09:09:16;;;;;;;1.20;0.73;;;;;;;-144.05;85.24;57020.88;5015748;28;20041;-82
2024/03/16 09:11:42;;;;;;;5.70;1.50;;;6.80;99.90;;;-144.05;84.61;56997.50;5010320;28;20033;-82
2024/03/16 09:14:08;;;;;;;4.15;1.10;;;6.80;99.90;;;-144.05;84.22;56980.53;5021548;28;20018;-82
2024/03/16 09:16:40;;;;;;;5.63;1.00;;;6.90;99.90;;;-144.05;84.69;56961.41;5024751;28;20391;-82
2024/03/16 09:19:07;;;;;;;6.18;1.70;;;8.10;99.90;;;-144.05;82.73;56989.00;5031661;28;20037;-82
2024/03/16 09:21:33;;;;;;;6.38;1.23;;;;;;;-144.05;82.47;56986.91;5023694;28;20026;-81
2024/03/16 09:23:59;;;;;;;4.75;1.30;;;7.40;99.90;;;-144.05;81.73;56961.41;5023891;28;20041;-80
2024/03/16 09:26:25;;;;;;;10.43;1.77;;;;;;;-144.05;79.97;57023.00;5016050;28;20018;-81
2024/03/16 09:28:51;;;;;;;3.10;1.02;;;6.70;99.90;;;-144.05;79.94;56989.00;5012530;28;20033;-81
2024/03/16 09:31:18;;;;;;;5.53;1.30;;;;;;;-144.05;79.52;56967.78;5019348;28;20029;-81
2024/03/16 09:33:44;;;;;;;2.95;0.85;;;7.30;99.90;;;-144.05;77.93;56957.16;5019326;28;20471;-79
2024/03/16 09:36:09;;;;;;;7.43;1.05;;;7.60;99.90;;;-144.05;76.42;56995.38;5017265;28;20041;-80
2024/03/16 09:38:36;;;;;;;7.03;1.10;;;14.10;99.90;;;-144.05;76.92;56972.03;5024192;28;20145;-82
2024/03/16 09:41:02;;;;;;;2.80;0.70;;;6.90;99.90;;;-144.05;75.31;56974.16;5015360;28;20064;-82
2024/03/16 09:43:33;;;;;;;5.00;1.42;;;7.50;99.90;;;-144.05;75.05;56959.28;5015314;28;20046;-80
2024/03/16 09:46:00;;;;;;;4.55;1.08;;;7.20;99.90;;;-144.05;75.83;56974.16;5018343;28;20125;-80
2024/03/16 09:48:27;;;;;;;3.90;0.65;;;7.00;99.90;;;-144.05;73.72;56989.00;5036839;28;20651;-80
2024/03/16 09:50:55;;;;;;;2.88;0.70;;;6.60;99.90;;;-144.05;72.64;56986.91;5020660;28;20093;-81
2024/03/16 09:53:31;;;;;;;3.97;0.60;;;7.40;99.90;;;-144.05;72.04;56989.00;5019811;28;20119;-81
2024/03/16 09:55:59;;;;;;;2.85;0.75;;;7.10;99.90;;;-144.05;72.37;56989.00;5026308;28;20026;-82
2024/03/16 09:58:26;;;;;;;5.40;0.93;;;;;;;-144.05;73.13;56997.50;5031217;28;20131;-80
2024/03/16 10:01:03;;;;;;;5.63;0.93;;;9.20;99.90;;;-144.05;71.21;56967.78;5021370;28;20094;-80
2024/03/16 10:03:30;;;;;;;4.05;1.17;;;;;;;-144.05;72.10;56969.91;5020945;28;20033;-80
2024/03/16 10:05:59;;;;;;;3.40;0.73;;;;;;;-144.05;72.81;56948.66;5021617;28;20056;-80
2024/03/16 10:08:26;;;;;;;4.43;1.25;;;7.40;99.90;;;-144.05;72.91;56989.00;5018161;28;20053;-80
2024/03/16 10:11:14;;;;;;;3.13;0.82;;;9.10;99.90;;;-144.05;72.21;56959.28;5018655;28;20422;-81
2024/03/16 10:13:57;;;;;;;5.20;1.55;;;9.20;99.90;;;-144.05;70.88;56967.78;5026153;28;20488;-80
2024/03/16 10:16:24;;;;;;;7.65;1.25;;;7.20;99.90;;;-144.05;71.67;57003.88;5018136;28;20136;-81
2024/03/16 10:18:53;;;;;;;4.53;1.52;;;7.40;99.90;;;-144.05;71.50;56967.78;5020323;28;20022;-81
2024/03/16 10:21:19;;;;;;;4.57;1.02;;;7.80;99.90;;;-144.05;70.81;56997.50;5036579;28;20032;-78
2024/03/16 10:23:46;;;;;;;4.18;1.10;;;7.20;99.90;;;-144.05;70.50;56965.66;5038132;28;20025;-79
2024/03/16 10:26:15;;;;;;;7.18;1.85;;;9.20;99.90;;;-144.05;71.42;56984.78;5031213;28;20456;-83
2024/03/16 10:28:46;;;;;;;5.43;1.33;;;9.10;99.90;;;-144.05;71.27;56978.41;5032245;28;20026;-79
2024/03/16 10:31:12;;;;;;;4.82;2.33;;;;;;;-144.05;74.68;56959.28;5022270;28;20018;-80